الصفحة الرئيسية
METAR-TAF:

METAR-TAF

مطار :

مطار باماكو موديبو كيتا الدولي

باماكو, مالي

دائرة عرض: 12-32N, خط طول: 007-57W, ارتفاع: 380 متر

مراقبة الطقس الحالي

تاريخ ووقت الإصدار 44 دقيقة قبل الساعة 07:30UTC
ريح 2 عقدةمن اتجاهات متغيرة
درجة الحرارة 23°درجة مئوية
الرطوبة 57%
ضغط 1013 hPa
الرؤية 10 كم أو أكثر
الغيوم لا تقل 1500 م ولا وجود لمزنة ركامية السحاب الأسود

METAR: GABS 150730Z VRB02KT CAVOK 23/14 Q1013 NOSIG

زمن: 08:14 (08:14 UTC)

توقعات

تاريخ ووقت الإصدار 3ساعات و 14 دقيقة قبل الساعة 05:00UTC
التوقعات صالحة من15 الساعة 06 UTC إلى 16 الساعة 12 UTC
ريح 10 عقدة من الشرق تتزايد حتى 20 عقدة
الرؤية: 8000 متر
نظرية الاحتمالات 40% :
مؤقت
من 15 الساعة 06 UTC إلى 15 الساعة 11 UTC
الرؤية: 4000 متر
العجاج
نظرية الاحتمالات 40% :
مؤقت
من 15 الساعة 17 UTC إلى 15 الساعة 22 UTC
الرؤية: 4000 متر
العجاج

TAF: GABS 150500Z 1506/1612 08010G20KT 8000 NSC PROB40 TEMPO 1506/1511 4000 HZ PROB40 TEMPO 1517/1522 4000 HZ

أرصاد الطقس والتوقعات من أكثر من 4000 مطار (تقارير الطقس للمطار METAR والتنبؤ بالطقس بالمطارTAF).

المحطات المتاحة هي النقط الصفراء والحمراء على الخريطة.

حرك المؤشر فوق النقطة لمعرفة اسم المحطة.

ثم انقر لمعرفة أرصاد وتوقعات الطقس.

لتغيير الخارطة: اضغط على الأزرار الخضراء مع رمز الصليب الأسود للتكبير. على الزر الأخضر مع شرطة للتصغير، أو على الأسهم الخضراء للخرائط المجاورة.


METAR-TAF: